Flight Track Log - Related Links

Times and Time Zones

All times are in EDT time to prevent confusion due to time zone crossing. See the N966QS flight status page for this flight to view local times or setup timezone preferences in your user account.

Time Position Orientation Groundspeed Altitude Reporting Facility
EDT Latitude Longitude Course Direction KTS MPH feet Rate Location/Type
Thu 02:34:01 PM 33.4422 -82.0497 299° West 244 281 4,400  Level Atlanta Center
Thu 02:35:01 PM 33.4747 -82.1311 296° West 260 299 7,600 2,700 Climbing Atlanta Center
Thu 02:36:01 PM 33.5136 -82.2200 298° West 277 319 9,800 1,200 Climbing Atlanta Center
Thu 02:37:01 PM 33.5794 -82.3058 313° West 313 360 10,000 750 Climbing Atlanta Center
Thu 02:38:01 PM 33.6683 -82.3889 322° Northwest 408 470 11,300 1,450 Climbing Atlanta Center
Thu 02:39:00 PM 33.7192 -82.7943 299° West  Level FlightAware Approximate
Thu 02:39:01 PM 33.7489 -82.4747 318° Northwest 389 448 12,900  Level Atlanta Center
Thu 02:40:01 PM 33.8169 -82.5786 308° West 388 447 15,000 2,150 Climbing Atlanta Center
Thu 02:41:01 PM 33.8703 -82.6778 303° West 376 433 17,200 2,050 Climbing Atlanta Center
Thu 02:42:01 PM 33.9361 -82.7844 307° West 376 433 19,100 1,900 Climbing Atlanta Center
Thu 02:43:01 PM 33.9975 -82.8861 306° West 384 442 21,000 1,250 Climbing Atlanta Center
Thu 02:44:01 PM 34.0633 -82.9981 305° West 406 467 21,600 650 Climbing Atlanta Center
Thu 02:45:01 PM 34.1417 -83.1303 306° West 428 493 22,300 800 Climbing Atlanta Center
Thu 02:46:01 PM 34.2111 -83.2525 305° West 448 516 23,200 950 Climbing Atlanta Center
Thu 02:47:01 PM 34.2872 -83.3800 306° West 457 526 24,200 1,100 Climbing Atlanta Center
Thu 02:48:01 PM 34.3608 -83.5078 305° West 471 542 25,400 1,200 Climbing Atlanta Center
Thu 02:49:01 PM 34.4364 -83.6358 306° West 471 542 26,600 1,300 Climbing Atlanta Center
Thu 02:50:01 PM 34.5119 -83.7667 305° West 476 548 28,000 1,450 Climbing Atlanta Center
Thu 02:51:01 PM 34.5872 -83.8950 305° West 471 542 29,500 1,350 Climbing Atlanta Center
Thu 02:52:01 PM 34.6500 -83.9983 306° West 471 542 30,700 1,600 Climbing Atlanta Center
Thu 02:53:01 PM 34.7292 -84.1450 303° West 476 548 32,700 2,350 Climbing Atlanta Center
Thu 02:54:01 PM 34.8103 -84.2817 306° West 466 536 35,400 2,300 Climbing Atlanta Center
Thu 02:55:01 PM 34.8811 -84.4058 305° West 452 520 37,300 1,450 Climbing Atlanta Center
Thu 02:56:01 PM 34.9433 -84.5178 304° West 452 520 38,300 1,000 Climbing Atlanta Center
Thu 02:57:01 PM 35.0136 -84.6450 304° West 447 514 39,300 850 Climbing Atlanta Center
Thu 02:58:01 PM 35.0861 -84.7697 305° West 447 514 40,000 350 Climbing Atlanta Center
Thu 02:59:01 PM 35.1686 -84.8900 310° West 452 520 40,000  Level Atlanta Center
Thu 03:00:01 PM 35.2575 -85.0156 311° West 475 547 40,000  Level Atlanta Center
Thu 03:01:44 PM 35.4236 -85.2461 312° West 502 578 40,000  Level Memphis Center
Thu 03:02:44 PM 35.5142 -85.3731 311° West 502 578 40,000  Level Memphis Center
Thu 03:03:44 PM 35.6028 -85.5031 310° West 502 578 40,000  Level Memphis Center
Thu 03:04:44 PM 35.6931 -85.6308 311° West 507 583 40,000  Level Memphis Center
Thu 03:05:44 PM 35.7814 -85.7589 310° West 507 583 40,000  Level Memphis Center
Thu 03:06:44 PM 35.8647 -85.8744 312° West 507 583 40,000  Level Memphis Center
Thu 03:07:44 PM 35.9550 -86.0056 310° West 512 589 40,000  Level Memphis Center
Thu 03:08:44 PM 36.0450 -86.1342 311° West 505 581 40,000  Level Memphis Center
Thu 03:09:44 PM 36.1347 -86.2631 311° West 505 581 40,000  Level Memphis Center
Thu 03:10:44 PM 36.2244 -86.3925 311° West 510 587 40,000  Level Memphis Center
Thu 03:11:44 PM 36.3161 -86.5244 311° West 510 587 40,000  Level Memphis Center
Thu 03:12:44 PM 36.4075 -86.6542 311° West 510 587 40,000  Level Memphis Center
Thu 03:13:44 PM 36.5033 -86.7892 311° West 516 594 40,000  Level Memphis Center
Thu 03:14:44 PM 36.5906 -86.9250 309° West 511 588 40,000  Level Memphis Center
Thu 03:15:44 PM 36.6794 -87.0583 310° West 503 579 40,000  Level Memphis Center
Thu 03:16:44 PM 36.7642 -87.1894 309° West 503 579 40,000  Level Memphis Center
Thu 03:17:44 PM 36.8531 -87.3233 310° West 503 579 40,000  Level Memphis Center
Thu 03:18:44 PM 36.9481 -87.4678 309° West 503 579 40,000  Level Memphis Center
Thu 03:19:44 PM 37.0367 -87.5997 310° West 503 579 40,000  Level Memphis Center
Thu 03:20:44 PM 37.1228 -87.7294 310° West 498 573 40,000  Level Memphis Center
Thu 03:21:44 PM 37.2089 -87.8592 310° West 498 573 40,000  Level Memphis Center
Thu 03:22:44 PM 37.2903 -87.9844 309° West 492 566 40,000  Level Memphis Center
Thu 03:23:44 PM 37.3761 -88.1150 310° West 498 573 40,000  Level Memphis Center
Thu 03:26:01 PM 37.5611 -88.4028 309° West 493 567 40,000  Level Kansas City Center
Thu 03:27:02 PM 37.6642 -88.5636 309° West 491 565 40,000  Level Kansas City Center
Thu 03:28:04 PM 37.7497 -88.6994 309° West 490 564 40,000  Level Kansas City Center
Thu 03:29:06 PM 37.8314 -88.8258 309° West 493 567 40,000  Level Kansas City Center
Thu 03:30:08 PM 37.9181 -88.9589 310° West 492 566 40,000  Level Kansas City Center
Thu 03:31:10 PM 38.0169 -89.1233 307° West 489 563 40,000  Level Kansas City Center
Thu 03:32:12 PM 38.1019 -89.2567 309° West 487 560 40,000  Level Kansas City Center
Thu 03:33:14 PM 38.1872 -89.3906 309° West 486 559 40,000  Level Kansas City Center
Thu 03:34:15 PM 38.2778 -89.5356 309° West 487 560 40,000  Level Kansas City Center
Thu 03:35:17 PM 38.3619 -89.6706 309° West 486 559 40,000  Level Kansas City Center
Thu 03:36:19 PM 38.4403 -89.7944 309° West 489 563 40,000  Level Kansas City Center
Thu 03:37:21 PM 38.5244 -89.9292 309° West 488 562 40,000  Level Kansas City Center
Thu 03:38:23 PM 38.6228 -90.0906 308° West 484 557 40,000  Level Kansas City Center
Thu 03:39:24 PM 38.7044 -90.2242 308° West 481 554 40,000  Level Kansas City Center
Thu 03:40:26 PM 38.7881 -90.3611 308° West 484 557 40,000  Level Kansas City Center
Thu 03:41:28 PM 38.8722 -90.4997 308° West 491 565 40,000  Level Kansas City Center
Thu 03:42:30 PM 38.9628 -90.6483 308° West 480 552 40,000  Level Kansas City Center
Thu 03:43:32 PM 39.0461 -90.7808 309° West 479 551 40,000  Level Kansas City Center
Thu 03:44:34 PM 39.1286 -90.9153 308° West 479 551 40,000  Level Kansas City Center
Thu 03:45:35 PM 39.2114 -91.0500 308° West 480 552 40,000  Level Kansas City Center
Thu 03:46:37 PM 39.2936 -91.1864 308° West 482 555 40,000  Level Kansas City Center
Thu 03:47:39 PM 39.3772 -91.3219 309° West 483 556 40,000 242 Level Kansas City Center
Thu 03:48:41 PM 39.4608 -91.4583 308° West 485 558 40,500 774 Climbing Kansas City Center
Thu 03:49:43 PM 39.5506 -91.6086 308° West 475 547 41,600 1,065 Climbing Kansas City Center
Thu 03:50:45 PM 39.6297 -91.7408 308° West 469 540 42,700 683 Climbing Kansas City Center
Thu 03:51:46 PM 39.7078 -91.8733 307° West 466 536 43,000 146 Climbing Kansas City Center
Thu 03:52:48 PM 39.8072 -92.0361 309° West 478 550 43,000  Level Kansas City Center
Thu 03:53:50 PM 39.8903 -92.1764 308° West 488 562 43,000  Level Kansas City Center
Thu 03:54:52 PM 39.9744 -92.3183 308° West 494 568 43,000  Level Kansas City Center
Thu 03:55:54 PM 40.0631 -92.4692 308° West 495 570 43,000  Level Kansas City Center
Thu 03:56:56 PM 40.1414 -92.6081 306° West 496 571 43,000  Level Kansas City Center
Thu 03:57:58 PM 40.2022 -92.7850 294° West 480 552 43,000  Level Kansas City Center
Thu 03:59:00 PM 40.2536 -92.9375 294° West 479 551 43,000  Level Kansas City Center
Thu 04:00:04 PM 40.3164 -93.1208 294° West 480 552 43,000  Level Kansas City Center
Thu 04:01:06 PM 40.3706 -93.2808 294° West 481 554 43,000  Level Kansas City Center
Thu 04:01:41 PM 40.4022 -93.3764 294° West 484 557 43,000  Level Minneapolis Center
Thu 04:02:43 PM 40.4564 -93.5361 294° West 484 557 43,000  Level Minneapolis Center
Thu 04:03:45 PM 40.5094 -93.6989 293° West 487 560 43,000  Level Minneapolis Center
Thu 04:04:47 PM 40.5639 -93.8631 294° West 492 566 43,000  Level Minneapolis Center
Thu 04:05:49 PM 40.6186 -94.0247 294° West 489 563 43,000  Level Minneapolis Center
Thu 04:06:50 PM 40.6714 -94.1881 293° West 488 562 43,000  Level Minneapolis Center
Thu 04:07:53 PM 40.7342 -94.3828 293° West 485 558 43,000  Level Minneapolis Center
Thu 04:08:54 PM 40.7767 -94.5131 293° West 486 559 43,000  Level Minneapolis Center
Thu 04:09:57 PM 40.8442 -94.7208 293° West 484 557 43,000  Level Minneapolis Center
Thu 04:10:58 PM 40.8981 -94.8869 293° West 489 563 43,000  Level Minneapolis Center
Thu 04:12:00 PM 40.9501 -95.0489 293° West  Level FlightAware Approximate
Thu 04:12:12 PM 40.9519 -95.0533 293° West 492 566 43,000  Level Minneapolis Center
Thu 04:13:15 PM 41.0164 -95.2528 293° West 492 566 43,000  Level Minneapolis Center
Thu 04:14:17 PM 41.0683 -95.4208 292° West 492 566 43,000  Level Minneapolis Center
Thu 04:15:18 PM 41.1200 -95.5886 292° West 491 565 43,000  Level Minneapolis Center
Thu 04:16:20 PM 41.1903 -95.7892 295° West 491 565 43,000  Level Minneapolis Center
Thu 04:17:24 PM 41.2636 -95.9464 302° West 499 574 43,000  Level Minneapolis Center
Thu 04:18:26 PM 41.3353 -96.1008 302° West 492 566 43,000  Level Minneapolis Center
Thu 04:19:28 PM 41.4069 -96.2558 302° West 492 566 43,000  Level Minneapolis Center
Thu 04:20:29 PM 41.4675 -96.3911 301° West 489 563 43,000  Level Minneapolis Center
Thu 04:21:32 PM 41.5517 -96.5767 301° West 488 562 43,000  Level Minneapolis Center
Thu 04:22:34 PM 41.6211 -96.7303 301° West 485 558 43,000  Level Minneapolis Center
Thu 04:23:36 PM 41.7039 -96.9172 301° West 486 559 43,000  Level Minneapolis Center
Thu 04:24:37 PM 41.7597 -97.0417 301° West 487 560 43,000  Level Minneapolis Center
Thu 04:25:40 PM 41.8419 -97.2292 301° West 486 559 43,000  Level Minneapolis Center
Thu 04:26:42 PM 41.9114 -97.3861 301° West 489 563 43,000  Level Minneapolis Center
Thu 04:27:44 PM 41.9803 -97.5436 301° West 489 563 43,000  Level Minneapolis Center
Thu 04:28:46 PM 42.0489 -97.7006 301° West 488 562 43,000  Level Minneapolis Center
Thu 04:29:48 PM 42.1247 -97.8756 300° West 488 562 43,000  Level Minneapolis Center
Thu 04:30:50 PM 42.1928 -98.0331 300° West 487 560 43,000  Level Minneapolis Center
Thu 04:31:52 PM 42.2608 -98.1906 300° West 488 562 43,000  Level Minneapolis Center
Thu 04:32:54 PM 42.3292 -98.3500 300° West 490 564 43,000  Level Minneapolis Center
Thu 04:33:56 PM 42.4097 -98.5436 299° West 493 567 43,000  Level Minneapolis Center
Thu 04:34:58 PM 42.4772 -98.7050 300° West 494 568 43,000  Level Minneapolis Center
Thu 04:36:00 PM 42.5394 -98.8706 297° West 494 568 43,000  Level Minneapolis Center
Thu 04:37:02 PM 42.5889 -99.0031 297° West 493 567 43,000  Level Minneapolis Center
Thu 04:38:04 PM 42.6633 -99.2036 297° West 495 570 43,000  Level Minneapolis Center
Thu 04:39:06 PM 42.7369 -99.4042 297° West 495 570 43,000  Level Minneapolis Center
Thu 04:40:08 PM 42.7981 -99.5717 296° West 495 570 43,000  Level Minneapolis Center
Thu 04:42:00 PM 42.9036 -99.8664 296° West  Level FlightAware Approximate
Thu 04:44:29 PM 43.0525 -100.2803 296° West 497 572 43,000  Level Minneapolis Center
Thu 04:44:53 PM 43.0758 -100.3478 295° West 498 573 43,000  Level Denver Center
Thu 04:45:31 PM 43.1236 -100.4831 295° West 494 568 43,000  Level Minneapolis Center
Thu 04:45:55 PM 43.1478 -100.5514 296° West 495 570 43,000  Level Denver Center
Thu 04:46:00 PM 43.1380 -100.5255 296° West  Level FlightAware Approximate
Thu 04:46:57 PM 43.2081 -100.7231 296° West 497 572 43,000  Level Denver Center
Thu 04:47:59 PM 43.2678 -100.8950 296° West 497 572 43,000  Level Denver Center
Thu 04:49:00 PM 43.2943 -100.9795 296° West  Level FlightAware Approximate
Thu 04:49:01 PM 43.3269 -101.0653 296° West 495 570 43,000  Level Denver Center
Thu 04:50:03 PM 43.3858 -101.2369 295° West 495 570 43,000  Level Denver Center
Thu 04:51:05 PM 43.4447 -101.4092 295° West 496 571 43,000  Level Denver Center
Thu 04:52:06 PM 43.5039 -101.5822 295° West 498 573 43,000  Level Denver Center
Thu 04:53:00 PM 43.5215 -101.6475 295° West  Level FlightAware Approximate
Thu 04:53:20 PM 43.5725 -101.7872 295° West 492 566 43,000  Level Denver Center
Thu 04:54:23 PM 43.6417 -101.9917 295° West 489 563 43,000  Level Denver Center
Thu 04:55:24 PM 43.6928 -102.1461 295° West 486 559 43,000  Level Denver Center
Thu 04:56:26 PM 43.7547 -102.3350 294° West 485 558 43,000  Level Denver Center
Thu 04:57:28 PM 43.8083 -102.4964 295° West 484 557 43,000  Level Denver Center
Thu 04:58:30 PM 43.8686 -102.6833 294° West 479 551 43,000  Level Denver Center
Thu 04:59:32 PM 43.9225 -102.8478 295° West 484 557 43,000  Level Denver Center
Thu 05:00:34 PM 43.9861 -103.0397 295° West 488 562 43,000  Level Denver Center
Thu 05:01:36 PM 44.0444 -103.2008 297° West 488 562 43,000  Level Denver Center
Thu 05:02:38 PM 44.1122 -103.3889 297° West 489 563 43,000  Level Denver Center
Thu 05:03:40 PM 44.1692 -103.5492 296° West 488 562 43,000  Level Denver Center
Thu 05:04:42 PM 44.2350 -103.7386 296° West 489 563 43,000  Level Denver Center
Thu 05:05:44 PM 44.2919 -103.8997 296° West 485 558 43,000  Level Denver Center
Thu 05:06:46 PM 44.3589 -104.0900 296° West 490 564 43,000  Level Denver Center
Thu 05:07:48 PM 44.4156 -104.2519 296° West 487 560 43,000  Level Denver Center
Thu 05:08:49 PM 44.4617 -104.3872 296° West 485 558 43,000  Level Denver Center
Thu 05:09:52 PM 44.5361 -104.6033 296° West 484 557 43,000  Level Denver Center
Thu 05:10:54 PM 44.5922 -104.7642 296° West 481 554 43,000  Level Denver Center
Thu 05:11:56 PM 44.6558 -104.9536 295° West 481 554 43,000  Level Denver Center
Thu 05:12:58 PM 44.7097 -105.1158 295° West 480 552 43,000  Level Denver Center
Thu 05:14:00 PM 44.7728 -105.3031 295° West 480 552 43,000  Level Denver Center
Thu 05:15:02 PM 44.8264 -105.4661 295° West 481 554 43,000  Level Denver Center
Thu 05:16:04 PM 44.8889 -105.6575 295° West 481 554 43,000  Level Denver Center
Thu 05:17:06 PM 44.9444 -105.8231 295° West 486 559 43,000  Level Denver Center
Thu 05:18:08 PM 45.0072 -106.0158 295° West 486 559 43,000  Level Denver Center
Thu 05:19:13 PM 45.0697 -106.2094 295° West 486 559 43,000  Level Salt Lake Center
Thu 05:20:15 PM 45.1239 -106.3767 295° West 488 562 43,000  Level Salt Lake Center
Thu 05:21:16 PM 45.1836 -106.5711 294° West 484 557 43,000  Level Salt Lake Center
Thu 05:22:18 PM 45.2375 -106.7372 295° West 483 556 43,000  Level Salt Lake Center
Thu 05:23:20 PM 45.2894 -106.9053 294° West 485 558 43,000  Level Salt Lake Center
Thu 05:24:22 PM 45.3506 -107.0986 294° West 483 556 43,000  Level Salt Lake Center
Thu 05:25:23 PM 45.4017 -107.2667 293° West 483 556 43,000  Level Salt Lake Center
Thu 05:26:25 PM 45.4617 -107.4594 294° West 480 552 43,000  Level Salt Lake Center
Thu 05:27:27 PM 45.5111 -107.6247 293° West 479 551 43,000  Level Salt Lake Center
Thu 05:28:29 PM 45.5694 -107.8183 293° West 477 549 43,000  Level Salt Lake Center
Thu 05:29:31 PM 45.6189 -107.9833 293° West 476 548 43,000  Level Salt Lake Center
Thu 05:30:32 PM 45.6772 -108.1767 293° West 478 550 43,000  Level Salt Lake Center
Thu 05:31:34 PM 45.7267 -108.3456 293° West 483 556 43,000  Level Salt Lake Center
Thu 05:32:36 PM 45.7856 -108.5419 293° West 482 555 43,000  Level Salt Lake Center
Thu 05:33:38 PM 45.8317 -108.7142 291° West 485 558 43,000  Level Salt Lake Center
Thu 05:34:40 PM 45.8833 -108.9133 291° West 479 551 43,000  Level Salt Lake Center
Thu 05:35:42 PM 45.9264 -109.0814 290° West 471 542 43,000  Level Salt Lake Center
Thu 05:36:44 PM 45.9778 -109.2833 290° West 480 552 43,000  Level Salt Lake Center
Thu 05:37:46 PM 46.0208 -109.4569 290° West 482 555 43,000  Level Salt Lake Center
Thu 05:38:48 PM 46.0650 -109.6300 290° West 483 556 43,000  Level Salt Lake Center
Thu 05:39:50 PM 46.1147 -109.8353 289° West 487 560 43,000  Level Salt Lake Center
Thu 05:40:51 PM 46.1564 -110.0125 289° West 488 562 43,000  Level Salt Lake Center
Thu 05:41:53 PM 46.2058 -110.2175 289° West 486 559 43,000  Level Salt Lake Center
Thu 05:42:55 PM 46.2472 -110.3947 289° West 486 559 43,000  Level Salt Lake Center
Thu 05:43:57 PM 46.2969 -110.6014 289° West 486 559 43,000  Level Salt Lake Center
Thu 05:44:59 PM 46.3386 -110.7786 289° West 487 560 43,000  Level Salt Lake Center
Thu 05:46:01 PM 46.3842 -110.9747 289° West 487 560 43,000  Level Salt Lake Center
Thu 05:47:03 PM 46.4275 -111.1572 289° West 484 557 43,000  Level Salt Lake Center
Thu 05:48:05 PM 46.4733 -111.3614 288° West 483 556 43,000  Level Salt Lake Center
Thu 05:49:07 PM 46.5150 -111.5458 288° West 481 554 43,000  Level Salt Lake Center
Thu 05:50:09 PM 46.5567 -111.7331 288° West 485 558 43,000  Level Salt Lake Center
Thu 05:51:11 PM 46.5983 -111.9161 288° West 480 552 43,000  Level Salt Lake Center
Thu 05:52:13 PM 46.6428 -112.0981 290° West 478 550 43,000 -48 Level Salt Lake Center
Thu 05:53:15 PM 46.6878 -112.2808 290° West 480 552 42,900 -49 Descending Salt Lake Center
Thu 05:54:16 PM 46.7319 -112.4619 290° West 476 548 42,900 49 Level Salt Lake Center
Thu 05:55:18 PM 46.7864 -112.6822 290° West 480 552 43,000 48 Climbing Salt Lake Center
Thu 05:56:20 PM 46.8289 -112.8647 289° West 476 548 43,000 -48 Level Salt Lake Center
Thu 05:57:22 PM 46.8742 -113.0497 290° West 474 545 42,900  Descending Salt Lake Center
Thu 05:58:24 PM 46.9158 -113.2283 289° West 466 536 43,000 48 Climbing Salt Lake Center
Thu 05:59:26 PM 46.9581 -113.4089 289° West 470 541 43,000  Level Salt Lake Center
Thu 06:00:27 PM 47.0019 -113.5931 289° West 480 552 43,000  Level Salt Lake Center
Thu 06:01:29 PM 47.0450 -113.7778 289° West 478 550 43,000  Level Salt Lake Center
Thu 06:02:31 PM 47.0864 -113.9578 289° West 465 535 43,000 -48 Level Salt Lake Center
Thu 06:03:33 PM 47.1339 -114.1689 288° West 455 524 42,900 -49 Descending Salt Lake Center
Thu 06:04:34 PM 47.1750 -114.3483 289° West 463 533 42,900 49 Level Salt Lake Center
Thu 06:05:36 PM 47.2156 -114.5308 288° West 468 539 43,000 48 Climbing Salt Lake Center
Thu 06:06:38 PM 47.2556 -114.7142 288° West 470 541 43,000  Level Salt Lake Center
Thu 06:07:32 PM 47.2967 -114.8992 288° West 472 543 43,000  Level Seattle Center
Thu 06:08:33 PM 47.3358 -115.0836 287° West 473 544 43,000  Level Seattle Center
Thu 06:09:34 PM 47.3758 -115.2672 288° West 469 540 43,000  Level Seattle Center
Thu 06:10:35 PM 47.4156 -115.4492 288° West 466 536 43,000  Level Seattle Center
Thu 06:11:36 PM 47.4531 -115.6308 287° West 463 533 43,000  Level Seattle Center
Thu 06:12:37 PM 47.4672 -115.8083 277° West 470 541 43,000  Level Seattle Center
Thu 06:13:38 PM 47.4792 -115.9975 275° West 464 534 43,000  Level Seattle Center
Thu 06:14:39 PM 47.4897 -116.1878 275° West 465 535 43,000  Level Seattle Center
Thu 06:15:40 PM 47.5003 -116.3758 275° West 462 532 43,000  Level Seattle Center
Thu 06:16:41 PM 47.5133 -116.6033 275° West 463 533 43,000  Level Seattle Center
Thu 06:17:42 PM 47.5239 -116.7969 275° West 469 540 43,000  Level Seattle Center
Thu 06:18:43 PM 47.5331 -116.9661 275° West 472 543 43,000  Level Seattle Center
Thu 06:19:44 PM 47.5422 -117.1614 274° West 476 548 43,000  Level Seattle Center
Thu 06:20:45 PM 47.5511 -117.3572 274° West 475 547 43,000  Level Seattle Center
Thu 06:21:46 PM 47.5611 -117.5489 274° West 469 540 43,000  Level Seattle Center
Thu 06:22:48 PM 47.5797 -117.7767 277° West 465 535 43,000  Level Seattle Center
Thu 06:23:49 PM 47.5978 -117.9647 278° West 463 533 43,000  Level Seattle Center
Thu 06:24:50 PM 47.6142 -118.1511 277° West 459 528 43,000  Level Seattle Center
Thu 06:25:51 PM 47.6319 -118.3397 278° West 463 533 43,000  Level Seattle Center
Thu 06:26:52 PM 47.6486 -118.5281 278° West 463 533 43,000  Level Seattle Center
Thu 06:27:53 PM 47.6664 -118.7167 278° West 463 533 43,000  Level Seattle Center
Thu 06:28:54 PM 47.6814 -118.9067 277° West 465 535 43,000  Level Seattle Center
Thu 06:29:55 PM 47.6969 -119.0972 277° West 466 536 43,000 -443 Level Seattle Center
Thu 06:30:56 PM 47.7131 -119.2861 277° West 464 534 42,100 -1,574 Descending Seattle Center
Thu 06:31:57 PM 47.7283 -119.4650 277° West 445 512 39,800 -2,164 Descending Seattle Center
Thu 06:32:58 PM 47.7422 -119.6375 277° West 426 490 37,700 -2,164 Descending Seattle Center
Thu 06:33:59 PM 47.7556 -119.8100 277° West 422 486 35,400 -2,557 Descending Seattle Center
Thu 06:35:00 PM 47.7717 -120.0306 276° West 440 506 32,500 -2,607 Descending Seattle Center
Thu 06:36:01 PM 47.7850 -120.2181 276° West 449 517 30,100 -2,410 Descending Seattle Center
Thu 06:37:02 PM 47.8017 -120.4083 277° West 461 531 27,600 -2,410 Descending Seattle Center
Thu 06:38:03 PM 47.8139 -120.5953 276° West 459 528 25,200 -2,361 Descending Seattle Center
Thu 06:39:04 PM 47.8275 -120.7797 276° West 451 519 22,800 -2,213 Descending Seattle Center
Thu 06:40:05 PM 47.8397 -120.9528 276° West 445 512 20,700 -2,164 Descending Seattle Center
Thu 06:41:06 PM 47.8508 -121.1228 276° West 426 490 18,400 -2,283 Descending Seattle Center
Thu 06:41:58 PM 47.8628 -121.2975 276° West 410 472 16,400 -2,218 Descending Seattle Center
Thu 06:43:05 PM 47.8733 -121.4669 275° West 373 429 14,000 -1,983 Descending Seattle Center
Thu 06:43:59 PM 47.8814 -121.5919 276° West 308 354 12,400 -1,488 Descending Seattle Center
Thu 06:45:06 PM 47.8708 -121.7239 263° West 274 315 11,000 -689 Descending Seattle Center
Thu 06:46:01 PM 47.8169 -121.8008 224° Southwest 288 331 11,000 -327 Level Seattle Center
Thu 06:46:56 PM 47.7633 -121.8608 217° Southwest 290 334 10,400 -761 Descending Seattle Center
Thu 06:47:12 PM 47.7408 -121.8700 195° South 282 325 10,100 -787 Descending Seattle Center
Thu 06:47:57 PM 47.6883 -121.8900 194° South 282 325 9,600 -787 Descending Seattle Center
Thu 06:48:13 PM 47.6647 -121.9006 197° South 283 326 9,300 -1,500 Descending Seattle Center
Thu 06:48:57 PM 47.6083 -121.9250 196° South 280 322 8,100 -1,672 Descending Seattle Center
Thu 06:49:14 PM 47.5903 -121.9322 195° South 277 319 7,600 -1,672 Descending Seattle Center
Thu 06:49:58 PM 47.5447 -121.9806 216° Southwest 266 306 6,400 -1,672 Descending Seattle Center
Thu 06:50:15 PM 47.5294 -121.9961 215° Southwest 268 308 5,900 -1,279 Descending Seattle Center
Thu 06:50:59 PM 47.4919 -122.0528 226° Southwest 255 293 5,100 -871 Descending Seattle Center
Thu 06:51:17 PM 47.4811 -122.0789 238° Southwest 244 281 5,000  Descending Seattle Center
Thu 06:52:00 PM 47.4583 -122.1303 237° Southwest 210 242 5,100 -393 Climbing Seattle Center
Thu 06:52:18 PM 47.4497 -122.1517 239° Southwest 213 245 4,600 -1,522 Descending Seattle Center
Thu 06:53:07 PM 47.4383 -122.2006 251° West 153 176 3,400 -1,418 Descending Seattle Center
Thu 06:54:08 PM 47.4606 -122.2439 307° West 117 135 2,000 -1,279 Descending Seattle Center
Thu 06:55:09 PM 47.4894 -122.2706 328° Northwest 114 131 800 -1,180 Descending Seattle Center
Thu 06:58:00 PM 47.5167 -122.3000 247° West  Level FlightAware Approximate

Login

Don't have an account? Register now (free) for customized features, flight alerts, and more!